createdAt,value
2019-04-14T00:02:29.392Z,95387.21
2019-04-14T00:04:59.524Z,95391.38
2019-04-14T00:07:29.732Z,95390.05
2019-04-14T00:09:58.790Z,95391.69
2019-04-14T00:12:27.485Z,95387.44
2019-04-14T00:14:56.160Z,95385.25
2019-04-14T00:17:24.823Z,95384.31
2019-04-14T00:19:54.423Z,95386.32
2019-04-14T00:22:23.352Z,95388.74
2019-04-14T00:24:53.216Z,95385.75
2019-04-14T00:27:21.981Z,95389.49
2019-04-14T00:29:50.665Z,95381.50
2019-04-14T00:32:20.403Z,95384.71
2019-04-14T00:34:51.016Z,95385.88
2019-04-14T00:37:27.386Z,95387.89
2019-04-14T00:40:01.869Z,95387.77
2019-04-14T00:42:34.973Z,95385.47
2019-04-14T00:45:06.974Z,95382.37
2019-04-14T00:47:51.920Z,95383.53
2019-04-14T00:50:11.040Z,95378.03
2019-04-14T00:52:39.670Z,95380.91
2019-04-14T00:55:09.716Z,95381.27
2019-04-14T00:57:38.476Z,95374.60
2019-04-14T01:00:10.415Z,95376.77
2019-04-14T01:02:39.238Z,95368.83
2019-04-14T01:05:09.028Z,95373.08
2019-04-14T01:07:38.885Z,95370.98
2019-04-14T01:10:08.284Z,95372.72
2019-04-14T01:12:36.925Z,95373.59
2019-04-14T01:15:07.199Z,95368.94
2019-04-14T01:17:35.995Z,95365.16
2019-04-14T01:20:05.951Z,95369.77
2019-04-14T01:22:35.821Z,95371.73
2019-04-14T01:25:06.894Z,95365.78
2019-04-14T01:27:36.331Z,95374.55
2019-04-14T01:30:08.726Z,95372.39
2019-04-14T01:32:37.434Z,95374.02
2019-04-14T01:35:07.517Z,95366.78
2019-04-14T01:37:37.587Z,95365.83
2019-04-14T01:40:07.571Z,95365.77
2019-04-14T01:42:36.123Z,95362.79
2019-04-14T01:45:07.941Z,95365.38
2019-04-14T01:47:37.698Z,95364.63
2019-04-14T01:50:06.983Z,95363.00
2019-04-14T01:52:38.400Z,95365.63
2019-04-14T01:55:09.615Z,95366.98
2019-04-14T01:57:39.873Z,95361.54
2019-04-14T02:00:29.223Z,95355.75
2019-04-14T02:02:58.265Z,95356.61
2019-04-14T02:05:27.769Z,95355.76
2019-04-14T02:07:56.554Z,95356.61
2019-04-14T02:10:25.886Z,95352.50
2019-04-14T02:12:54.881Z,95352.08
2019-04-14T02:15:24.425Z,95358.91
2019-04-14T02:17:54.495Z,95354.70
2019-04-14T02:20:23.429Z,95357.23
2019-04-14T02:22:53.192Z,95357.64
2019-04-14T02:25:23.020Z,95353.86
2019-04-14T02:27:51.998Z,95355.12
2019-04-14T02:30:26.279Z,95352.19
2019-04-14T02:36:14.565Z,95351.75
2019-04-14T02:38:33.880Z,95353.08
2019-04-14T02:40:53.841Z,95354.33
2019-04-14T02:43:25.684Z,95352.66
2019-04-14T02:45:50.592Z,95348.88
2019-04-14T02:48:38.273Z,95356.05
2019-04-14T02:50:47.699Z,95350.97
2019-04-14T02:56:00.772Z,95346.36
2019-04-14T02:58:28.491Z,95352.28
2019-04-14T03:01:02.330Z,95345.98
2019-04-14T03:03:27.903Z,95357.38
2019-04-14T03:06:01.104Z,95356.16
2019-04-14T03:08:25.936Z,95348.61
2019-04-14T03:10:55.827Z,95347.34
2019-04-14T03:15:59.050Z,95344.81
2019-04-14T03:18:35.150Z,95351.02
2019-04-14T03:20:55.310Z,95353.16
2019-04-14T03:23:43.916Z,95349.77
2019-04-14T03:26:04.818Z,95349.77
2019-04-14T03:28:50.806Z,95340.94
2019-04-14T03:31:39.149Z,95338.14
2019-04-14T03:37:39.259Z,95345.01
2019-04-14T03:38:53.299Z,95347.95
2019-04-14T03:43:43.137Z,95350.01
2019-04-14T03:46:25.419Z,95345.42
2019-04-14T03:53:50.668Z,95354.31
2019-04-14T03:56:02.332Z,95356.36
2019-04-14T03:58:29.251Z,95347.91
2019-04-14T04:00:58.057Z,95355.61
2019-04-14T04:03:26.641Z,95350.30
2019-04-14T04:05:56.320Z,95357.22
2019-04-14T04:08:25.286Z,95355.26
2019-04-14T04:10:55.579Z,95351.19
2019-04-14T04:13:24.182Z,95345.02
2019-04-14T04:15:54.355Z,95344.31
2019-04-14T04:18:24.653Z,95346.55
2019-04-14T04:20:58.821Z,95350.00
2019-04-14T04:23:35.650Z,95349.29
2019-04-14T04:26:21.765Z,95346.47
2019-04-14T04:28:56.138Z,95349.55
2019-04-14T04:31:26.780Z,95342.09
2019-04-14T04:34:09.813Z,95342.64
2019-04-14T04:36:53.057Z,95345.25
2019-04-14T04:39:26.410Z,95348.73
2019-04-14T04:41:55.777Z,95354.75
2019-04-14T04:44:24.810Z,95350.70
2019-04-14T04:46:54.802Z,95355.83
2019-04-14T04:49:26.569Z,95359.73
2019-04-14T04:51:55.041Z,95356.02
2019-04-14T04:54:23.779Z,95359.08
2019-04-14T04:56:52.443Z,95362.95
2019-04-14T04:59:23.458Z,95359.72
2019-04-14T05:01:52.405Z,95362.36
2019-04-14T05:04:22.000Z,95361.62
2019-04-14T05:07:01.660Z,95365.94
2019-04-14T05:09:39.130Z,95365.19
2019-04-14T05:12:22.214Z,95362.34
2019-04-14T05:15:01.511Z,95367.95
2019-04-14T05:17:38.900Z,95368.08
2019-04-14T05:20:09.432Z,95366.09
2019-04-14T05:22:38.221Z,95372.19
2019-04-14T05:25:07.978Z,95376.55
2019-04-14T05:27:36.681Z,95367.84
2019-04-14T05:30:06.900Z,95370.91
2019-04-14T05:32:36.932Z,95374.36
2019-04-14T05:35:07.477Z,95379.92
2019-04-14T05:37:36.085Z,95379.13
2019-04-14T05:40:08.141Z,95376.20
2019-04-14T05:42:38.397Z,95380.02
2019-04-14T05:45:08.663Z,95377.10
2019-04-14T05:47:37.404Z,95383.86
2019-04-14T05:50:07.867Z,95380.90
2019-04-14T05:52:36.487Z,95380.90
2019-04-14T05:55:07.315Z,95381.29
2019-04-14T05:57:35.874Z,95378.36
2019-04-14T06:00:08.307Z,95373.82
2019-04-14T06:02:37.736Z,95379.48
2019-04-14T06:05:08.885Z,95380.88
2019-04-14T06:07:37.348Z,95384.86
2019-04-14T06:10:07.383Z,95387.55
2019-04-14T06:12:36.004Z,95380.95
2019-04-14T06:15:06.065Z,95386.59
2019-04-14T06:17:43.909Z,95379.12
2019-04-14T06:20:12.905Z,95384.31
2019-04-14T06:22:41.464Z,95375.89
2019-04-14T06:25:10.091Z,95376.32
2019-04-14T06:27:38.720Z,95377.22
2019-04-14T06:30:22.066Z,95378.61
2019-04-14T06:32:51.535Z,95381.56
2019-04-14T06:35:33.787Z,95383.33
2019-04-14T06:38:05.843Z,95391.83
2019-04-14T06:40:48.285Z,95391.06
2019-04-14T06:43:16.849Z,95388.53
2019-04-14T06:45:45.506Z,95387.25
2019-04-14T06:48:14.101Z,95380.84
2019-04-14T06:50:42.607Z,95385.88
2019-04-14T06:53:11.158Z,95391.34
2019-04-14T06:55:39.683Z,95394.70
2019-04-14T06:58:08.285Z,95395.95
2019-04-14T07:00:37.047Z,95405.66
2019-04-14T07:03:05.678Z,95404.34
2019-04-14T07:05:34.180Z,95403.86
2019-04-14T07:08:03.459Z,95395.78
2019-04-14T07:10:32.031Z,95405.47
2019-04-14T07:13:00.828Z,95401.58
2019-04-14T07:15:29.458Z,95412.63
2019-04-14T07:17:58.045Z,95405.09
2019-04-14T07:20:26.601Z,95402.57
2019-04-14T07:22:55.239Z,95401.73
2019-04-14T07:25:23.724Z,95398.28
2019-04-14T07:27:52.372Z,95397.81
2019-04-14T07:30:25.183Z,95398.09
2019-04-14T07:32:55.333Z,95404.73
2019-04-14T07:35:41.375Z,95403.71
2019-04-14T07:38:11.641Z,95400.58
2019-04-14T07:40:50.646Z,95400.53
2019-04-14T07:43:34.297Z,95395.20
2019-04-14T07:46:04.503Z,95399.08
2019-04-14T07:48:40.849Z,95403.93
2019-04-14T07:51:13.802Z,95396.59
2019-04-14T07:53:55.777Z,95405.55
2019-04-14T07:56:32.171Z,95411.95
2019-04-14T07:59:04.895Z,95408.88
2019-04-14T08:01:35.195Z,95413.74
2019-04-14T08:04:05.484Z,95414.86
2019-04-14T08:06:34.484Z,95408.58
2019-04-14T08:09:03.121Z,95411.41
2019-04-14T08:11:31.606Z,95410.72
2019-04-14T08:14:00.102Z,95413.73
2019-04-14T08:16:28.583Z,95412.41
2019-04-14T08:18:57.322Z,95411.54
2019-04-14T08:21:25.958Z,95407.33
2019-04-14T08:23:54.511Z,95409.89
2019-04-14T08:26:23.092Z,95409.34
2019-04-14T08:28:51.592Z,95406.58
2019-04-14T08:31:20.314Z,95402.77
2019-04-14T08:33:48.967Z,95404.27
2019-04-14T08:36:17.596Z,95408.61
2019-04-14T08:38:46.237Z,95409.97
2019-04-14T08:41:14.871Z,95407.36
2019-04-14T08:43:47.837Z,95412.92
2019-04-14T08:46:21.188Z,95407.74
2019-04-14T08:48:51.383Z,95409.31
2019-04-14T08:51:27.540Z,95415.67
2019-04-14T08:54:09.790Z,95416.73
2019-04-14T08:56:49.181Z,95421.63
2019-04-14T08:59:25.404Z,95423.10
2019-04-14T09:02:01.372Z,95421.89
2019-04-14T09:04:34.405Z,95424.08
2019-04-14T09:07:20.872Z,95428.02
2019-04-14T09:10:00.266Z,95429.64
2019-04-14T09:12:33.206Z,95432.47
2019-04-14T09:15:01.768Z,95425.59
2019-04-14T09:17:31.165Z,95421.44
2019-04-14T09:19:59.880Z,95427.14
2019-04-14T09:22:28.517Z,95425.67
2019-04-14T09:24:57.110Z,95429.52
2019-04-14T09:27:25.704Z,95417.67
2019-04-14T09:29:54.263Z,95414.20
2019-04-14T09:32:23.452Z,95418.50
2019-04-14T09:34:52.014Z,95426.04
2019-04-14T09:37:20.572Z,95424.02
2019-04-14T09:39:49.199Z,95412.52
2019-04-14T09:42:17.829Z,95423.84
2019-04-14T09:44:46.391Z,95426.34
2019-04-14T09:47:14.949Z,95418.81
2019-04-14T09:49:43.620Z,95414.23
2019-04-14T09:52:12.258Z,95435.87
2019-04-14T09:54:40.839Z,95419.53
2019-04-14T09:57:09.511Z,95428.08
2019-04-14T09:59:38.075Z,95424.22
2019-04-14T10:02:07.048Z,95425.83
2019-04-14T10:04:35.677Z,95425.53
2019-04-14T10:07:04.548Z,95425.67
2019-04-14T10:09:33.259Z,95432.83
2019-04-14T10:12:01.862Z,95423.91
2019-04-14T10:14:30.612Z,95422.25
2019-04-14T10:17:01.364Z,95423.48
2019-04-14T10:19:33.280Z,95423.91
2019-04-14T10:22:01.853Z,95424.59
2019-04-14T10:24:30.512Z,95414.73
2019-04-14T10:26:59.140Z,95417.41
2019-04-14T10:29:27.808Z,95410.56
2019-04-14T10:31:56.447Z,95415.51
2019-04-14T10:34:25.157Z,95422.14
2019-04-14T10:36:53.848Z,95419.41
2019-04-14T10:39:22.500Z,95429.19
2019-04-14T10:41:51.067Z,95414.22
2019-04-14T10:44:19.795Z,95425.37
2019-04-14T10:46:48.256Z,95420.84
2019-04-14T10:49:16.938Z,95418.13
2019-04-14T10:51:47.144Z,95420.98
2019-04-14T10:54:16.820Z,95417.84
2019-04-14T10:56:45.638Z,95420.27
2019-04-14T10:59:14.229Z,95415.02
2019-04-14T11:01:42.858Z,95414.62
2019-04-14T11:04:11.528Z,95409.99
2019-04-14T11:06:41.731Z,95419.16
2019-04-14T11:09:14.942Z,95408.24
2019-04-14T11:11:43.770Z,95407.19
2019-04-14T11:14:12.410Z,95412.58
2019-04-14T11:16:41.163Z,95402.94
2019-04-14T11:19:09.817Z,95410.60
2019-04-14T11:21:42.779Z,95406.98
2019-04-14T11:24:08.597Z,95408.50
2019-04-14T11:26:37.173Z,95411.36
2019-04-14T11:29:06.014Z,95412.29
2019-04-14T11:31:36.287Z,95407.45
2019-04-14T11:34:04.874Z,95408.41
2019-04-14T11:36:51.253Z,95406.34
2019-04-14T11:39:24.156Z,95397.82
2019-04-14T11:41:52.649Z,95398.80
2019-04-14T11:44:21.287Z,95387.47
2019-04-14T11:46:49.894Z,95391.48
2019-04-14T11:49:18.537Z,95393.39
2019-04-14T11:51:55.063Z,95397.67
2019-04-14T11:54:17.580Z,95402.56
2019-04-14T11:56:46.345Z,95388.47
2019-04-14T11:59:15.409Z,95397.84
2019-04-14T12:01:45.615Z,95396.47
2019-04-14T12:04:34.646Z,95406.16
2019-04-14T12:07:21.075Z,95400.01
2019-04-14T12:09:51.415Z,95408.14
2019-04-14T12:12:19.976Z,95395.42
2019-04-14T12:14:50.056Z,95401.31
2019-04-14T12:17:18.614Z,95405.34
2019-04-14T12:19:47.267Z,95397.48
2019-04-14T12:22:15.898Z,95400.82
2019-04-14T12:24:44.473Z,95403.08
2019-04-14T12:27:13.596Z,95399.64
2019-04-14T12:29:43.326Z,95401.00
2019-04-14T12:32:13.013Z,95397.47
2019-04-14T12:34:41.649Z,95395.42
2019-04-14T12:37:10.277Z,95397.09
2019-04-14T12:39:38.979Z,95398.72
2019-04-14T12:42:27.449Z,95398.59
2019-04-14T12:45:00.686Z,95402.09
2019-04-14T12:47:43.186Z,95399.26
2019-04-14T12:50:14.086Z,95401.27
2019-04-14T12:52:42.639Z,95401.73
2019-04-14T12:55:11.740Z,95407.23
2019-04-14T12:57:56.944Z,95408.44
2019-04-14T13:00:45.328Z,95401.38
2019-04-14T13:03:13.958Z,95407.66
2019-04-14T13:05:42.687Z,95404.17
2019-04-14T13:08:11.260Z,95422.44
2019-04-14T13:10:39.889Z,95416.34
2019-04-14T13:13:08.523Z,95406.79
2019-04-14T13:15:37.114Z,95411.52
2019-04-14T13:18:05.780Z,95416.94
2019-04-14T13:20:34.471Z,95428.62
2019-04-14T13:23:03.007Z,95424.14
2019-04-14T13:25:31.651Z,95418.81
2019-04-14T13:28:00.240Z,95419.67
2019-04-14T13:30:30.511Z,95417.34
2019-04-14T13:32:59.191Z,95416.12
2019-04-14T13:35:27.823Z,95427.31
2019-04-14T13:37:56.475Z,95426.49
2019-04-14T13:40:25.238Z,95421.52
2019-04-14T13:42:53.880Z,95422.10
2019-04-14T13:45:22.508Z,95427.47
2019-04-14T13:47:51.074Z,95426.19
2019-04-14T13:50:19.702Z,95428.06
2019-04-14T13:52:48.267Z,95426.48
2019-04-14T13:55:17.239Z,95430.46
2019-04-14T13:57:45.803Z,95431.75
2019-04-14T14:00:15.600Z,95426.63
2019-04-14T14:02:44.230Z,95423.11
2019-04-14T14:05:12.859Z,95432.14
2019-04-14T14:07:41.597Z,95433.55
2019-04-14T14:10:11.185Z,95428.47
2019-04-14T14:12:44.331Z,95420.73
2019-04-14T14:15:18.084Z,95419.83
2019-04-14T14:18:04.411Z,95422.83
2019-04-14T14:20:43.524Z,95421.55
2019-04-14T14:23:16.615Z,95427.08
2019-04-14T14:25:49.817Z,95429.99
2019-04-14T14:28:18.610Z,95431.67
2019-04-14T14:30:47.336Z,95426.61
2019-04-14T14:33:15.977Z,95432.63
2019-04-14T14:35:44.509Z,95424.25
2019-04-14T14:38:13.039Z,95422.53
2019-04-14T14:40:41.674Z,95426.89
2019-04-14T14:43:10.305Z,95424.84
2019-04-14T14:45:43.558Z,95424.39
2019-04-14T14:48:13.735Z,95419.21
2019-04-14T14:50:46.802Z,95423.06
2019-04-14T14:53:15.431Z,95427.84
2019-04-14T14:55:46.639Z,95424.47
2019-04-14T14:58:15.271Z,95424.97
2019-04-14T15:00:43.993Z,95445.17
2019-04-14T15:03:14.292Z,95425.16
2019-04-14T15:05:42.862Z,95432.83
2019-04-14T15:08:11.495Z,95425.20
2019-04-14T15:10:40.181Z,95431.11
2019-04-14T15:13:08.831Z,95433.34
2019-04-14T15:15:38.630Z,95433.35
2019-04-14T15:18:07.249Z,95435.09
2019-04-14T15:20:36.002Z,95428.30
2019-04-14T15:23:05.331Z,95429.58
2019-04-14T15:25:34.015Z,95437.31
2019-04-14T15:28:02.496Z,95439.04
2019-04-14T15:30:31.298Z,95436.92
2019-04-14T15:32:59.855Z,95436.19
2019-04-14T15:35:28.643Z,95428.56
2019-04-14T15:37:57.267Z,95437.13
2019-04-14T15:40:25.924Z,95444.37
2019-04-14T15:42:56.855Z,95437.97
2019-04-14T15:45:25.497Z,95438.42
2019-04-14T15:47:54.128Z,95446.58
2019-04-14T15:50:22.770Z,95443.22
2019-04-14T15:52:51.328Z,95451.30
2019-04-14T15:55:20.067Z,95446.67
2019-04-14T15:57:56.531Z,95454.34
2019-04-14T16:00:43.152Z,95456.06
2019-04-14T16:03:22.429Z,95456.50
2019-04-14T16:05:52.722Z,95454.87
2019-04-14T16:08:22.987Z,95454.92
2019-04-14T16:11:04.860Z,95459.23
2019-04-14T16:13:35.309Z,95462.28
2019-04-14T16:16:11.502Z,95463.59
2019-04-14T16:18:44.383Z,95464.03
2019-04-14T16:21:13.107Z,95471.38
2019-04-14T16:23:50.511Z,95473.48
2019-04-14T16:26:25.525Z,95472.65
2019-04-14T16:29:07.611Z,95476.95
2019-04-14T16:31:43.961Z,95478.27
2019-04-14T16:34:18.377Z,95481.70
2019-04-14T16:36:48.604Z,95475.31
2019-04-14T16:39:17.245Z,95480.05
2019-04-14T16:41:45.905Z,95483.47
2019-04-14T16:44:14.532Z,95483.53
2019-04-14T16:46:43.125Z,95479.33
2019-04-14T16:49:11.857Z,95485.73
2019-04-14T16:51:54.048Z,95487.05
2019-04-14T16:54:29.960Z,95490.06
2019-04-14T16:57:02.859Z,95493.04
2019-04-14T16:59:31.554Z,95496.05
2019-04-14T17:02:10.364Z,95501.17
2019-04-14T17:04:30.741Z,95505.02
2019-04-14T17:06:59.367Z,95504.64
2019-04-14T17:09:29.013Z,95504.66
2019-04-14T17:11:59.355Z,95508.05
2019-04-14T17:14:29.643Z,95511.02
2019-04-14T17:17:05.652Z,95510.63
2019-04-14T17:19:35.852Z,95516.18
2019-04-14T17:22:09.101Z,95513.23
2019-04-14T17:24:55.336Z,95518.33
2019-04-14T17:27:25.635Z,95518.77
2019-04-14T17:29:55.824Z,95523.03
2019-04-14T17:32:26.275Z,95531.53
2019-04-14T17:35:02.189Z,95531.55
2019-04-14T17:37:51.287Z,95536.23
2019-04-14T17:40:37.894Z,95532.39
2019-04-14T17:43:08.074Z,95532.39
2019-04-14T17:45:54.277Z,95541.30
2019-04-14T17:48:27.681Z,95546.41
2019-04-14T17:51:03.289Z,95543.01
2019-04-14T17:53:32.777Z,95556.59
2019-04-14T17:56:03.056Z,95556.16
2019-04-14T17:58:36.418Z,95554.01
2019-04-14T18:01:06.997Z,95560.80
2019-04-14T18:03:42.980Z,95567.56
2019-04-14T18:06:16.226Z,95570.95
2019-04-14T18:08:58.642Z,95576.88
2019-04-14T18:11:37.375Z,95576.85
2019-04-14T18:14:07.722Z,95578.50
2019-04-14T18:16:56.098Z,95586.14
2019-04-14T18:19:26.434Z,95586.09
2019-04-14T18:21:55.090Z,95589.45
2019-04-14T18:24:23.664Z,95593.23
2019-04-14T18:26:52.356Z,95597.88
2019-04-14T18:29:37.596Z,95594.45
2019-04-14T18:32:14.031Z,95600.78
2019-04-14T18:35:00.433Z,95600.75
2019-04-14T18:37:30.658Z,95604.52
2019-04-14T18:40:15.916Z,95604.48
2019-04-14T18:42:46.232Z,95610.80
2019-04-14T18:45:23.583Z,95612.02
2019-04-14T18:47:53.852Z,95611.58
2019-04-14T18:50:26.981Z,95614.53
2019-04-14T18:53:03.044Z,95621.66
2019-04-14T18:55:33.554Z,95620.34
2019-04-14T18:58:12.531Z,95618.59
2019-04-14T19:00:54.944Z,95619.38
2019-04-14T19:03:23.501Z,95623.17
2019-04-14T19:05:52.219Z,95627.39
2019-04-14T19:08:20.846Z,95629.89
2019-04-14T19:10:59.942Z,95635.78
2019-04-14T19:13:30.238Z,95633.61
2019-04-14T19:16:16.673Z,95640.81
2019-04-14T19:18:46.908Z,95637.83
2019-04-14T19:21:17.207Z,95638.23
2019-04-14T19:23:46.747Z,95645.83
2019-04-14T19:26:15.601Z,95639.03
2019-04-14T19:28:44.233Z,95646.63
2019-04-14T19:31:13.015Z,95643.61
2019-04-14T19:33:41.642Z,95649.55
2019-04-14T19:36:10.243Z,95649.97
2019-04-14T19:38:38.865Z,95647.80
2019-04-14T19:41:07.494Z,95646.54
2019-04-14T19:43:36.246Z,95650.32
2019-04-14T19:46:04.870Z,95654.50
2019-04-14T19:48:33.501Z,95661.65
2019-04-14T19:51:02.005Z,95661.57
2019-04-14T19:53:30.558Z,95659.35
2019-04-14T19:55:59.223Z,95661.39
2019-04-14T19:58:27.782Z,95657.92
2019-04-14T20:00:56.479Z,95657.88
2019-04-14T20:03:25.107Z,95664.52
2019-04-14T20:05:53.727Z,95670.35
2019-04-14T20:08:22.383Z,95666.88
2019-04-14T20:10:50.993Z,95675.70
2019-04-14T20:13:19.644Z,95676.39
2019-04-14T20:15:52.772Z,95677.17
2019-04-14T20:18:22.983Z,95674.14
2019-04-14T20:21:11.601Z,95671.13
2019-04-14T20:23:53.812Z,95683.34
2019-04-14T20:26:36.029Z,95685.39
2019-04-14T20:29:10.764Z,95687.01
2019-04-14T20:31:40.960Z,95692.39
2019-04-14T20:34:10.305Z,95683.42
2019-04-14T20:36:39.016Z,95686.30
2019-04-14T20:39:10.327Z,95691.38
2019-04-14T20:41:39.482Z,95687.50
2019-04-14T20:44:08.065Z,95691.30
2019-04-14T20:46:37.043Z,95689.08
2019-04-14T20:49:06.049Z,95695.34
2019-04-14T20:51:34.659Z,95697.38
2019-04-14T20:54:03.288Z,95693.95
2019-04-14T20:56:33.201Z,95692.66
2019-04-14T20:59:01.835Z,95693.88
2019-04-14T21:01:32.208Z,95700.13
2019-04-14T21:04:05.656Z,95697.10
2019-04-14T21:06:38.869Z,95702.51
2019-04-14T21:09:15.458Z,95706.23
2019-04-14T21:11:51.755Z,95708.30
2019-04-14T21:14:21.986Z,95708.17
2019-04-14T21:16:52.355Z,95705.52
2019-04-14T21:19:22.679Z,95710.08
2019-04-14T21:21:52.996Z,95708.72
2019-04-14T21:24:23.220Z,95712.43
2019-04-14T21:26:53.476Z,95716.19
2019-04-14T21:29:42.042Z,95716.95
2019-04-14T21:32:14.865Z,95713.91
2019-04-14T21:35:03.172Z,95719.34
2019-04-14T21:37:49.319Z,95723.05
2019-04-14T21:40:19.705Z,95720.47
2019-04-14T21:42:48.424Z,95722.48
2019-04-14T21:45:17.058Z,95724.05
2019-04-14T21:47:45.636Z,95717.33
2019-04-14T21:50:14.668Z,95721.46
2019-04-14T21:52:44.943Z,95724.27
2019-04-14T21:55:13.874Z,95722.97
2019-04-14T21:57:46.613Z,95720.34
2019-04-14T22:00:26.829Z,95721.88
2019-04-14T22:03:13.488Z,95719.77
2019-04-14T22:05:49.892Z,95726.45
2019-04-14T22:08:31.964Z,95727.11
2019-04-14T22:11:04.980Z,95721.58
2019-04-14T22:13:33.529Z,95720.13
2019-04-14T22:16:02.363Z,95725.50
2019-04-14T22:18:31.025Z,95727.50
2019-04-14T22:20:59.653Z,95730.77
2019-04-14T22:23:28.521Z,95727.67
2019-04-14T22:25:57.144Z,95732.62
2019-04-14T22:28:25.848Z,95726.98
2019-04-14T22:30:54.630Z,95730.14
2019-04-14T22:33:23.265Z,95732.55
2019-04-14T22:35:52.087Z,95729.19
2019-04-14T22:38:20.799Z,95731.64
2019-04-14T22:40:50.576Z,95734.91
2019-04-14T22:43:19.306Z,95734.86
2019-04-14T22:45:47.929Z,95739.02
2019-04-14T22:48:16.622Z,95736.42
2019-04-14T22:50:45.404Z,95738.91
2019-04-14T22:53:14.046Z,95730.80
2019-04-14T22:55:42.621Z,95737.94
2019-04-14T22:58:11.302Z,95731.16
2019-04-14T23:00:56.777Z,95735.67
2019-04-14T23:03:27.044Z,95733.03
2019-04-14T23:06:03.050Z,95735.92
2019-04-14T23:08:33.610Z,95737.55
2019-04-14T23:11:03.838Z,95741.17
2019-04-14T23:13:42.902Z,95736.53
2019-04-14T23:16:29.248Z,95743.27
2019-04-14T23:19:17.674Z,95741.95
2019-04-14T23:21:47.899Z,95741.03
2019-04-14T23:24:20.779Z,95740.91
2019-04-14T23:26:52.768Z,95739.17
2019-04-14T23:29:19.836Z,95742.42
2019-04-14T23:31:48.759Z,95744.84
2019-04-14T23:34:17.590Z,95741.45
2019-04-14T23:36:46.140Z,95752.22
2019-04-14T23:39:14.968Z,95749.52
2019-04-14T23:41:44.156Z,95751.14
2019-04-14T23:44:12.806Z,95750.70
2019-04-14T23:46:41.453Z,95749.86
2019-04-14T23:49:10.175Z,95756.94
2019-04-14T23:51:38.809Z,95749.27
2019-04-14T23:54:07.516Z,95756.84
2019-04-14T23:56:36.182Z,95757.61
2019-04-14T23:59:05.008Z,95752.02
